Terminal Aerodrome Forecast
Issued by NWS

Current Version | Previous Version | Text Only | Print | Product List | Glossary On
Versions: 1 2 3 4 5 6 7 8 9 10 11 12 13 14 15 16 17 18 19
000 FTUS41 KBOX 171720 TAFBED TAF KBED 171720Z 1718/1818 31017G27KT P6SM SKC FM172200 29010KT P6SM SKC FM181100 00000KT P6SM SCT250 FM181500 22007KT P6SM BKN090=

USA.gov is the U.S. government's official web portal to all federal, state and local government web resources and services.